• Join FlightAware (Why Join?)
  • Login
  • US Flag 
11:23AM EDT


 

Airport Tracker/Info


-or-


 

Live Flight TrackerFlight Track Log ✈ KEE202 ✈ 12-Sep-2013 ✈ CYTH - CYWG

Flight Track Log - Related Links

Times and Time Zones

All times are in EDT time to prevent confusion due to time zone crossing. See the KEE202 flight status page for this flight to view local times or setup timezone preferences in your user account.

Time Position Orientation Groundspeed Altitude Reporting Facility
EDT Latitude Longitude Course Direction KTS MPH feet Rate Location/Type
05:11PM 55.7833 -97.8500 246° West 120 138 1,000  Level Winnipeg Center
05:12PM 55.7667 -97.9167 246° West 140 161 3,000 1,980 Climbing Winnipeg Center
05:13PM 55.7333 -97.8833 151° Southeast 140 161 5,000 1,920 Climbing Winnipeg Center
05:14PM 55.6833 -97.8500 159° South 150 173 6,900 1,860 Climbing Winnipeg Center
05:15PM 55.6333 -97.8500 180° South 160 184 8,800 1,920 Climbing Winnipeg Center
05:16PM 55.6000 -97.8167 151° Southeast 170 196 10,800 1,800 Climbing Winnipeg Center
05:17PM 55.5500 -97.8167 180° South 170 196 12,400 1,560 Climbing Winnipeg Center
05:18PM 55.5000 -97.8167 180° South 180 207 14,000 1,500 Climbing Winnipeg Center
05:19PM 55.4500 -97.8167 180° South 190 219 15,400 1,200 Climbing Winnipeg Center
05:20PM 55.3833 -97.8167 180° South 200 230 16,500 1,200 Climbing Winnipeg Center
05:21PM 55.3333 -97.7833 159° South 200 230 17,800 1,140 Climbing Winnipeg Center
05:22PM 55.2667 -97.7833 180° South 200 230 18,800 1,080 Climbing Winnipeg Center
05:23PM 55.2167 -97.7833 180° South 210 242 20,000 1,080 Climbing Winnipeg Center
05:24PM 55.1667 -97.7833 180° South 210 242 21,000 480 Climbing Winnipeg Center
05:25PM 55.1000 -97.7833 180° South 230 265 21,000  Level Winnipeg Center
05:26PM 55.0333 -97.7833 180° South 260 299 21,100 120 Climbing Winnipeg Center
05:27PM 54.9500 -97.7500 167° South 270 311 21,300 660 Climbing Winnipeg Center
05:28PM 54.8833 -97.7500 180° South 260 299 22,500 960 Climbing Winnipeg Center
05:29PM 54.8167 -97.7500 180° South 230 265 23,300 720 Climbing Winnipeg Center
05:30PM 54.7500 -97.7500 180° South 230 265 24,000 660 Climbing Winnipeg Center
05:31PM 54.6833 -97.7500 180° South 240 276 24,700 540 Climbing Winnipeg Center
05:32PM 54.6167 -97.7500 180° South 240 276 25,100 180 Climbing Winnipeg Center
05:33PM 54.5500 -97.7167 164° South 260 299 25,100  Level Winnipeg Center
05:34PM 54.4667 -97.7167 180° South 270 311 25,200  Climbing Winnipeg Center
05:35PM 54.4000 -97.7167 180° South 280 322 25,100 -60 Descending Winnipeg Center
05:36PM 54.3167 -97.7167 180° South 280 322 25,100  Level Winnipeg Center
05:37PM 54.2333 -97.6833 167° South 280 322 25,200  Climbing Winnipeg Center
05:38PM 54.1500 -97.6833 180° South 280 322 25,100  Descending Winnipeg Center
05:39PM 54.0833 -97.6833 180° South 290 334 25,200  Climbing Winnipeg Center
05:40PM 54.0000 -97.6833 180° South 290 334 25,100 -60 Descending Winnipeg Center
05:41PM 53.9167 -97.6500 167° South 290 334 25,100  Level Winnipeg Center
05:42PM 53.8333 -97.6500 180° South 290 334 25,100  Level Winnipeg Center
05:43PM 53.7667 -97.6500 180° South 290 334 25,100  Level Winnipeg Center
05:44PM 53.6833 -97.6500 180° South 290 334 25,100  Level Winnipeg Center
05:45PM 53.6000 -97.6167 167° South 290 334 25,200  Climbing Winnipeg Center
05:46PM 53.5167 -97.6167 180° South 290 334 25,100 -60 Descending Winnipeg Center
05:47PM 53.4333 -97.5833 167° South 290 334 25,100  Level Winnipeg Center
05:48PM 53.3667 -97.5833 180° South 290 334 25,100  Level Winnipeg Center
05:49PM 53.2667 -97.5833 180° South 290 334 25,100  Level Winnipeg Center
05:50PM 53.1833 -97.5500 167° South 290 334 25,100  Level Winnipeg Center
05:51PM 53.1000 -97.5500 180° South 280 322 25,100  Level Winnipeg Center
05:52PM 53.0333 -97.5500 180° South 280 322 25,100  Level Winnipeg Center
05:53PM 52.9500 -97.5167 166° South 280 322 25,100  Level Winnipeg Center
05:54PM 52.8667 -97.5167 180° South 280 322 25,100  Level Winnipeg Center
05:55PM 52.7833 -97.5167 180° South 280 322 25,200  Climbing Winnipeg Center
05:56PM 52.7000 -97.5167 180° South 290 334 25,100 -60 Descending Winnipeg Center
05:57PM 52.6333 -97.4833 163° South 280 322 25,100  Level Winnipeg Center
05:58PM 52.5500 -97.4833 180° South 280 322 25,100  Level Winnipeg Center
05:59PM 52.4667 -97.4833 180° South 280 322 25,100  Level Winnipeg Center
06:00PM 52.4000 -97.4833 180° South 290 334 25,200  Climbing Winnipeg Center
06:01PM 52.3167 -97.4500 166° South 280 322 25,100  Descending Winnipeg Center
06:02PM 52.2333 -97.4500 180° South 280 322 25,200  Climbing Winnipeg Center
06:03PM 52.1500 -97.4500 180° South 290 334 25,200  Level Winnipeg Center
06:04PM 52.0833 -97.4333 171° South 290 334 25,200  Level Winnipeg Center
06:05PM 52.0000 -97.4000 166° South 290 334 25,200  Level Winnipeg Center
06:06PM 51.9333 -97.3667 163° South 280 322 25,200  Level Winnipeg Center
06:08PM 51.7667 -97.3500 176° South 290 334 25,200  Level Winnipeg Center
06:09PM 51.6833 -97.3167 166° South 290 334 25,200  Level Winnipeg Center
06:10PM 51.6000 -97.3167 180° South 290 334 25,200  Level Winnipeg Center
06:11PM 51.5333 -97.2833 163° South 290 334 25,200  Level Winnipeg Center
06:12PM 51.4500 -97.2667 173° South 290 334 25,200  Level Winnipeg Center
06:13PM 51.3667 -97.2333 166° South 290 334 25,200 -60 Level Winnipeg Center
06:14PM 51.2833 -97.2000 166° South 290 334 25,100  Descending Winnipeg Center
06:15PM 51.2000 -97.2000 180° South 290 334 25,200 -300 Climbing Winnipeg Center
06:16PM 51.1333 -97.1833 171° South 290 334 24,600 -900 Descending Winnipeg Center
06:17PM 51.0500 -97.1500 166° South 310 357 23,500 -1,200 Descending Winnipeg Center
06:18PM 50.9500 -97.1167 168° South 320 368 22,200 -1,380 Descending Winnipeg Center
06:19PM 50.8667 -97.1167 180° South 320 368 20,800 -1,440 Descending Winnipeg Center
06:20PM 50.7667 -97.1000 174° South 320 368 19,400 -1,500 Descending Winnipeg Center
06:21PM 50.6833 -97.0667 166° South 320 368 17,900 -1,320 Descending Winnipeg Center
06:22PM 50.6000 -97.0667 180° South 310 357 16,800 -1,380 Descending Winnipeg Center
06:23PM 50.5167 -97.0667 180° South 310 357 15,200 -1,620 Descending Winnipeg Center
06:24PM 50.4333 -97.0500 173° South 300 345 13,600 -1,800 Descending Winnipeg Center
06:25PM 50.3500 -97.0167 166° South 300 345 11,600 -2,100 Descending Winnipeg Center
06:26PM 50.2667 -97.0167 180° South 300 345 9,400 -2,100 Descending Winnipeg Center
06:27PM 50.1833 -97.0167 180° South 290 334 7,400 -1,740 Descending Winnipeg Center
06:28PM 50.1167 -97.0167 180° South 270 311 6,000 -1,500 Descending Winnipeg Center
06:29PM 50.0333 -97.0500 194° South 260 299 4,400 -1,260 Descending Winnipeg Center
06:30PM 49.9667 -97.0500 180° South 230 265 3,500 -840 Descending Winnipeg Center
06:31PM 49.9167 -97.1000 213° Southwest 210 242 2,800 -540 Descending Winnipeg Center
06:32PM 49.8833 -97.1500 224° Southwest 180 207 2,500 -660 Descending Winnipeg Center
06:33PM 49.8667 -97.2000 243° Southwest 120 138 1,500 -900 Descending Winnipeg Center
06:34PM 49.8833 -97.2333 308° West 90 104 800 -360 Descending Winnipeg Center
06:35PM 49.8833 -97.2333 308° West 10 12 800  Level Winnipeg Center
06:36PM 49.8833 -97.2333 308° West 20 23 800  Level Winnipeg Center
06:38PM 49.8833 -97.2333 308° West 10 12 800  Level Winnipeg Center